Time;durP1;ratioP1;P1;durP2;ratioP2;P2;SDS_P1;SDS_P2;PMS_P1;PMS_P2;Temp;Humidity;BMP_temperature;BMP_pressure;BME280_temperature;BME280_humidity;BME280_pressure;Samples;Min_cycle;Max_cycle;Signal;HPM_P1;HPM_P2
2023/11/15 00:01:42;;;;;;;4.45;1.52;;;10.90;99.90;;;;;;4172397;28;20068;-67
2023/11/15 00:03:43;;;;;;;3.70;1.13;;;10.90;99.90;;;;;;4190779;28;20033;-67
2023/11/15 00:05:44;;;;;;;8.45;1.90;;;10.90;99.90;;;;;;4156702;28;20033;-67
2023/11/15 00:07:44;;;;;;;8.48;2.08;;;11.00;99.90;;;;;;4173112;28;20037;-67
2023/11/15 00:09:45;;;;;;;4.68;1.40;;;10.90;99.90;;;;;;4173914;28;20045;-67
2023/11/15 00:11:45;;;;;;;3.53;1.23;;;10.90;99.90;;;;;;4159721;28;20030;-67
2023/11/15 00:14:05;;;;;;;5.13;1.63;;;11.00;99.90;;;;;;4155738;28;20071;-67
2023/11/15 00:16:24;;;;;;;3.42;1.20;;;11.00;99.90;;;;;;4155372;28;20024;-68
2023/11/15 00:18:43;;;;;;;5.18;1.42;;;11.10;99.90;;;;;;4129464;28;20513;-67
2023/11/15 00:21:03;;;;;;;3.88;1.52;;;11.10;99.90;;;;;;4154460;28;20044;-68
2023/11/15 00:23:07;;;;;;;12.45;3.33;;;11.10;99.90;;;;;;4170074;28;20036;-68
2023/11/15 00:25:08;;;;;;;10.32;2.90;;;11.10;99.90;;;;;;4175426;28;20029;-68
2023/11/15 00:27:10;;;;;;;20.00;3.97;;;11.10;99.90;;;;;;4174374;28;20074;-68
2023/11/15 00:29:10;;;;;;;17.40;4.23;;;11.20;99.90;;;;;;4170615;28;20335;-68
2023/11/15 00:31:12;;;;;;;18.08;3.95;;;11.20;99.90;;;;;;4174038;28;20267;-68
2023/11/15 00:33:13;;;;;;;9.10;3.45;;;11.20;99.90;;;;;;4175829;28;20045;-68
2023/11/15 00:35:14;;;;;;;15.05;4.10;;;11.20;99.90;;;;;;4174702;28;20061;-68
2023/11/15 00:37:15;;;;;;;18.33;4.72;;;11.30;99.90;;;;;;4175151;28;20064;-68
2023/11/15 00:39:15;;;;;;;18.13;4.68;;;11.30;99.90;;;;;;4175817;28;20047;-68
2023/11/15 00:41:16;;;;;;;12.88;4.70;;;11.30;99.90;;;;;;4174465;28;20651;-68
2023/11/15 00:43:18;;;;;;;14.68;4.03;;;11.30;99.90;;;;;;4195675;28;20423;-68
2023/11/15 00:45:22;;;;;;;19.92;5.55;;;11.40;99.90;;;;;;4175629;28;20448;-68
2023/11/15 00:47:22;;;;;;;17.02;4.10;;;11.40;99.90;;;;;;4164953;28;20043;-68
2023/11/15 00:49:23;;;;;;;19.08;4.88;;;11.40;99.90;;;;;;4163994;28;20040;-73
2023/11/15 00:51:23;;;;;;;12.18;4.72;;;11.40;99.90;;;;;;4175505;28;20477;-73
2023/11/15 00:53:24;;;;;;;12.75;4.20;;;11.40;99.90;;;;;;4164747;28;20056;-73
2023/11/15 00:55:25;;;;;;;19.88;4.65;;;11.40;99.90;;;;;;4165353;28;21340;-74
2023/11/15 00:57:25;;;;;;;22.13;5.30;;;11.40;99.90;;;;;;4176563;28;20063;-73
2023/11/15 00:59:36;;;;;;;12.38;3.70;;;11.40;99.90;;;;;;4173811;28;20117;-73
2023/11/15 01:01:38;;;;;;;12.35;4.07;;;11.40;99.90;;;;;;4173180;28;20029;-72
2023/11/15 01:03:46;;;;;;;15.68;5.13;;;11.40;99.90;;;;;;4177561;28;20029;-73
2023/11/15 01:05:47;;;;;;;14.57;4.63;;;11.40;99.90;;;;;;4176955;28;20425;-73
2023/11/15 01:07:47;;;;;;;15.70;4.55;;;11.40;99.90;;;;;;4177493;28;20037;-73
2023/11/15 01:09:49;;;;;;;13.07;4.15;;;11.40;99.90;;;;;;4191394;28;20078;-73
2023/11/15 01:11:53;;;;;;;16.15;4.22;;;11.50;99.90;;;;;;4175158;28;20442;-73
2023/11/15 01:13:54;;;;;;;14.25;4.43;;;11.40;99.90;;;;;;4174415;28;20539;-73
2023/11/15 01:15:55;;;;;;;14.77;3.97;;;11.40;99.90;;;;;;4175396;28;26053;-73
2023/11/15 01:17:57;;;;;;;15.68;4.60;;;11.50;99.90;;;;;;4175743;28;20049;-73
2023/11/15 01:19:57;;;;;;;14.95;4.43;;;11.50;99.90;;;;;;4176696;28;20063;-73
2023/11/15 01:21:58;;;;;;;9.15;3.85;;;11.50;99.90;;;;;;4180329;28;20079;-73
2023/11/15 01:23:59;;;;;;;12.30;4.00;;;11.40;99.90;;;;;;4170330;28;20037;-73
2023/11/15 01:26:00;;;;;;;12.80;4.35;;;11.50;99.90;;;;;;4166737;28;20037;-73
2023/11/15 01:28:01;;;;;;;10.65;4.00;;;11.50;99.90;;;;;;4191833;28;20452;-73
2023/11/15 01:30:03;;;;;;;17.80;4.75;;;11.50;99.90;;;;;;4188480;28;20036;-73
2023/11/15 01:32:03;;;;;;;8.98;3.55;;;11.50;99.90;;;;;;4175551;28;20033;-73
2023/11/15 01:34:05;;;;;;;13.10;4.32;;;11.50;99.90;;;;;;4178051;28;20408;-73
2023/11/15 01:36:07;;;;;;;15.23;4.32;;;11.50;99.90;;;;;;4175899;28;20108;-72
2023/11/15 01:38:07;;;;;;;17.25;5.15;;;11.50;99.90;;;;;;4180041;28;20075;-72
2023/11/15 01:40:09;;;;;;;17.33;4.72;;;11.50;99.90;;;;;;4166833;28;20041;-74
2023/11/15 01:42:11;;;;;;;17.27;4.75;;;11.50;99.90;;;;;;4160047;28;20465;-72
2023/11/15 01:44:12;;;;;;;18.30;5.72;;;11.50;99.90;;;;;;4175798;28;20044;-73
2023/11/15 01:46:14;;;;;;;17.50;4.68;;;11.50;99.90;;;;;;4176155;28;20061;-72
2023/11/15 01:48:16;;;;;;;17.70;4.97;;;11.50;99.90;;;;;;4172995;28;20044;-73
2023/11/15 01:50:17;;;;;;;16.60;4.32;;;11.50;99.90;;;;;;4160237;28;20029;-73
2023/11/15 01:52:18;;;;;;;14.68;4.53;;;11.50;99.90;;;;;;4133490;28;20056;-72
2023/11/15 01:54:21;;;;;;;21.33;5.88;;;11.50;99.90;;;;;;4177184;28;20531;-72
2023/11/15 01:56:22;;;;;;;14.77;5.28;;;11.50;99.90;;;;;;4160767;28;20064;-73
2023/11/15 01:58:26;;;;;;;15.65;4.63;;;11.50;99.90;;;;;;4175712;28;20045;-75
2023/11/15 02:00:27;;;;;;;14.98;5.10;;;11.50;99.90;;;;;;4173836;28;20352;-76
2023/11/15 02:02:27;;;;;;;15.32;4.10;;;11.50;99.90;;;;;;4161413;28;20482;-76
2023/11/15 02:04:28;;;;;;;12.32;4.43;;;11.50;99.90;;;;;;4153860;28;20022;-75
2023/11/15 02:06:35;;;;;;;14.50;4.55;;;11.50;99.90;;;;;;4158877;28;20037;-76
2023/11/15 02:08:36;;;;;;;18.75;5.30;;;11.50;99.90;;;;;;4162978;28;20041;-72
2023/11/15 02:10:37;;;;;;;12.07;4.30;;;11.50;99.90;;;;;;4159111;28;20029;-71
2023/11/15 02:12:37;;;;;;;11.23;4.13;;;11.50;99.90;;;;;;4163186;28;20030;-71
2023/11/15 02:14:38;;;;;;;15.50;5.07;;;11.50;99.90;;;;;;4163381;28;20094;-72
2023/11/15 02:16:38;;;;;;;8.77;4.00;;;11.50;99.90;;;;;;4171298;28;20041;-72
2023/11/15 02:18:39;;;;;;;16.65;5.10;;;11.50;99.90;;;;;;4169193;28;20489;-72
2023/11/15 02:20:40;;;;;;;16.90;5.72;;;11.50;99.90;;;;;;4161347;28;20453;-72
2023/11/15 02:23:00;;;;;;;14.00;4.43;;;11.50;99.90;;;;;;4168749;28;20040;-73
2023/11/15 02:25:01;;;;;;;17.98;5.15;;;11.50;99.90;;;;;;4163271;28;20029;-72
2023/11/15 02:27:01;;;;;;;21.52;5.40;;;11.50;99.90;;;;;;4164795;28;20033;-73
2023/11/15 02:29:02;;;;;;;13.23;4.72;;;11.50;99.90;;;;;;4174997;28;20037;-72
2023/11/15 02:31:03;;;;;;;17.73;5.05;;;11.50;99.90;;;;;;4176550;28;20033;-73
2023/11/15 02:33:03;;;;;;;15.77;5.50;;;11.50;99.90;;;;;;4184572;28;20132;-72
2023/11/15 02:35:07;;;;;;;21.17;6.00;;;11.50;99.90;;;;;;4182406;28;20029;-73
2023/11/15 02:37:09;;;;;;;11.35;5.00;;;11.50;99.90;;;;;;4183758;28;20465;-72
2023/11/15 02:39:10;;;;;;;19.67;5.90;;;11.50;99.90;;;;;;4173026;28;20063;-72
2023/11/15 02:41:12;;;;;;;13.73;4.57;;;11.50;99.90;;;;;;4175527;28;20119;-72
2023/11/15 02:43:13;;;;;;;16.63;4.90;;;11.50;99.90;;;;;;4176316;28;20392;-71
2023/11/15 02:45:14;;;;;;;11.45;4.10;;;11.50;99.90;;;;;;4174942;28;20029;-72
2023/11/15 02:47:15;;;;;;;16.20;5.50;;;11.50;99.90;;;;;;4175721;28;20044;-73
2023/11/15 02:49:15;;;;;;;15.40;4.80;;;11.50;99.90;;;;;;4176508;28;20044;-72
2023/11/15 02:51:16;;;;;;;14.73;4.85;;;11.50;99.90;;;;;;4175406;28;20033;-72
2023/11/15 02:53:18;;;;;;;13.55;4.43;;;11.50;99.90;;;;;;4175398;28;20106;-72
2023/11/15 02:55:19;;;;;;;14.98;5.40;;;11.50;99.90;;;;;;4175157;28;20079;-72
2023/11/15 02:57:19;;;;;;;17.40;5.80;;;11.50;99.90;;;;;;4172625;28;20037;-71
2023/11/15 02:59:20;;;;;;;16.52;5.07;;;11.50;99.90;;;;;;4169641;28;20116;-72
2023/11/15 03:01:21;;;;;;;16.80;5.13;;;11.50;99.90;;;;;;4174109;28;20040;-71
2023/11/15 03:03:21;;;;;;;14.40;4.95;;;11.50;99.90;;;;;;4174409;28;20334;-71
2023/11/15 03:05:22;;;;;;;11.75;4.55;;;11.40;99.90;;;;;;4175124;28;20029;-71
2023/11/15 03:07:24;;;;;;;17.40;5.78;;;11.50;99.90;;;;;;4177823;28;20107;-71
2023/11/15 03:09:24;;;;;;;17.20;5.20;;;11.50;99.90;;;;;;4174110;28;20060;-71
2023/11/15 03:11:25;;;;;;;13.75;4.50;;;11.50;99.90;;;;;;4174397;28;20029;-72
2023/11/15 03:13:25;;;;;;;13.40;4.53;;;11.50;99.90;;;;;;4176053;28;20058;-72
2023/11/15 03:15:26;;;;;;;12.68;4.60;;;11.50;99.90;;;;;;4178326;28;20366;-72
2023/11/15 03:17:27;;;;;;;18.02;5.25;;;11.50;99.90;;;;;;4175268;28;20044;-72
2023/11/15 03:19:27;;;;;;;10.25;4.00;;;11.50;99.90;;;;;;4174366;28;20044;-77
2023/11/15 03:21:28;;;;;;;12.73;4.40;;;11.50;99.90;;;;;;4175890;28;20044;-76
2023/11/15 03:23:29;;;;;;;15.82;4.65;;;11.50;99.90;;;;;;4178028;28;20063;-77
2023/11/15 03:25:29;;;;;;;11.15;4.40;;;11.50;99.90;;;;;;4174004;28;20474;-76
2023/11/15 03:27:30;;;;;;;16.27;4.82;;;11.40;99.90;;;;;;4175602;28;20111;-76
2023/11/15 03:29:31;;;;;;;14.73;4.53;;;11.40;99.90;;;;;;4174426;28;20060;-75
2023/11/15 03:31:32;;;;;;;13.57;4.72;;;11.40;99.90;;;;;;4175259;28;20051;-76
2023/11/15 03:33:32;;;;;;;15.52;4.90;;;11.40;99.90;;;;;;4175722;28;20033;-75
2023/11/15 03:35:33;;;;;;;16.75;4.68;;;11.40;99.90;;;;;;4171585;28;20091;-75
2023/11/15 03:37:34;;;;;;;13.18;4.43;;;11.50;99.90;;;;;;4175897;28;20485;-76
2023/11/15 03:39:34;;;;;;;12.93;3.88;;;11.50;99.90;;;;;;4179606;28;20038;-76
2023/11/15 03:41:35;;;;;;;19.00;4.57;;;11.50;99.90;;;;;;4171170;28;20042;-75
2023/11/15 03:43:40;;;;;;;15.90;4.43;;;11.50;99.90;;;;;;4161413;28;20454;-76
2023/11/15 03:45:41;;;;;;;24.80;5.40;;;11.40;99.90;;;;;;4168358;28;20800;-75
2023/11/15 03:47:41;;;;;;;14.38;4.20;;;11.40;99.90;;;;;;4176177;28;20045;-75
2023/11/15 03:49:42;;;;;;;12.38;4.47;;;11.40;99.90;;;;;;4168445;28;20064;-75
2023/11/15 03:51:42;;;;;;;19.20;5.00;;;11.50;99.90;;;;;;4174130;28;20484;-75
2023/11/15 03:53:43;;;;;;;10.85;3.80;;;11.40;99.90;;;;;;4177383;28;20045;-75
2023/11/15 03:55:44;;;;;;;15.02;4.57;;;11.50;99.90;;;;;;4172462;28;20475;-75
2023/11/15 03:57:46;;;;;;;17.27;4.82;;;11.50;99.90;;;;;;4158307;28;20049;-74
2023/11/15 03:59:47;;;;;;;12.98;4.18;;;11.40;99.90;;;;;;4160605;28;20472;-74
2023/11/15 04:01:50;;;;;;;18.88;4.88;;;11.40;99.90;;;;;;4164672;28;20045;-75
2023/11/15 04:03:51;;;;;;;20.27;4.85;;;11.40;99.90;;;;;;4176167;28;20040;-74
2023/11/15 04:05:51;;;;;;;15.80;4.82;;;11.40;99.90;;;;;;4170908;28;20057;-74
2023/11/15 04:07:52;;;;;;;17.98;4.55;;;11.40;99.90;;;;;;4162530;28;20390;-74
2023/11/15 04:09:53;;;;;;;18.10;4.93;;;11.40;99.90;;;;;;4176146;28;20124;-74
2023/11/15 04:11:53;;;;;;;15.38;4.07;;;11.40;99.90;;;;;;4170118;28;20037;-74
2023/11/15 04:13:54;;;;;;;16.20;4.43;;;11.40;99.90;;;;;;4160133;28;20422;-74
2023/11/15 04:15:54;;;;;;;14.52;4.13;;;11.40;99.90;;;;;;4162365;28;20049;-74
2023/11/15 04:17:56;;;;;;;9.57;3.30;;;11.40;99.90;;;;;;4176254;28;20041;-74
2023/11/15 04:19:56;;;;;;;14.45;4.28;;;11.40;99.90;;;;;;4176101;28;20049;-74
2023/11/15 04:21:57;;;;;;;14.00;4.32;;;11.40;99.90;;;;;;4176721;28;20116;-75
2023/11/15 04:23:58;;;;;;;9.50;3.85;;;11.40;99.90;;;;;;4180351;28;20442;-73
2023/11/15 04:26:00;;;;;;;12.63;4.35;;;11.40;99.90;;;;;;4171891;28;20389;-74
2023/11/15 04:28:03;;;;;;;12.07;4.15;;;11.40;99.90;;;;;;4160634;28;20048;-68
2023/11/15 04:30:04;;;;;;;17.42;4.40;;;11.40;99.90;;;;;;4172475;28;20449;-70
2023/11/15 04:32:05;;;;;;;14.27;4.13;;;11.40;99.90;;;;;;4176604;28;20053;-67
2023/11/15 04:34:06;;;;;;;14.48;4.03;;;11.50;99.90;;;;;;4179085;28;20036;-68
2023/11/15 04:36:07;;;;;;;14.20;4.22;;;11.50;99.90;;;;;;4176690;28;20477;-68
2023/11/15 04:38:09;;;;;;;16.50;4.00;;;11.40;99.90;;;;;;4178052;28;20432;-68
2023/11/15 04:40:10;;;;;;;16.92;4.15;;;11.50;99.90;;;;;;4175306;28;20052;-68
2023/11/15 04:42:10;;;;;;;18.55;4.90;;;11.50;99.90;;;;;;4164752;28;20116;-68
2023/11/15 04:44:11;;;;;;;14.98;4.68;;;11.40;99.90;;;;;;4161046;28;20037;-68
2023/11/15 04:46:12;;;;;;;12.52;3.88;;;11.50;99.90;;;;;;4174172;28;20052;-68
2023/11/15 04:48:12;;;;;;;15.55;4.65;;;11.40;99.90;;;;;;4170990;28;20087;-68
2023/11/15 04:50:13;;;;;;;15.00;4.78;;;11.40;99.90;;;;;;4168182;28;20033;-67
2023/11/15 04:52:13;;;;;;;17.33;4.65;;;11.40;99.90;;;;;;4174092;28;20060;-68
2023/11/15 04:54:14;;;;;;;19.25;4.38;;;11.40;99.90;;;;;;4177435;28;20052;-68
2023/11/15 04:56:15;;;;;;;15.93;4.40;;;11.40;99.90;;;;;;4177471;28;20029;-68
2023/11/15 04:58:15;;;;;;;17.88;4.70;;;11.40;99.90;;;;;;4162243;28;20060;-68
2023/11/15 05:00:16;;;;;;;12.13;3.28;;;11.40;99.90;;;;;;4172448;28;20041;-67
2023/11/15 05:02:17;;;;;;;16.10;4.70;;;11.40;99.90;;;;;;4172040;28;20037;-68
2023/11/15 05:04:18;;;;;;;17.83;5.05;;;11.40;99.90;;;;;;4171126;28;20583;-67
2023/11/15 05:06:19;;;;;;;20.40;4.70;;;11.40;99.90;;;;;;4169409;28;20029;-67
2023/11/15 05:08:19;;;;;;;16.60;4.57;;;11.30;99.90;;;;;;4177634;28;20116;-69
2023/11/15 05:10:22;;;;;;;10.98;3.92;;;11.30;99.90;;;;;;4174133;28;20515;-68
2023/11/15 05:12:22;;;;;;;19.75;4.25;;;11.30;99.90;;;;;;4171647;28;20473;-68
2023/11/15 05:14:23;;;;;;;18.83;4.90;;;11.40;99.90;;;;;;4162523;28;20030;-67
2023/11/15 05:16:23;;;;;;;15.80;4.32;;;11.40;99.90;;;;;;4168887;28;20049;-67
2023/11/15 05:18:24;;;;;;;14.02;3.92;;;11.40;99.90;;;;;;4176094;28;20033;-67
2023/11/15 05:20:25;;;;;;;15.82;4.43;;;11.30;99.90;;;;;;4171949;28;20447;-68
2023/11/15 05:22:26;;;;;;;16.10;4.25;;;11.30;99.90;;;;;;4181538;28;20529;-68
2023/11/15 05:24:27;;;;;;;13.23;4.40;;;11.30;99.90;;;;;;4177141;28;20037;-68
2023/11/15 05:26:28;;;;;;;17.65;4.53;;;11.30;99.90;;;;;;4177497;28;20487;-68
2023/11/15 05:28:29;;;;;;;12.73;3.97;;;11.30;99.90;;;;;;4178062;28;20362;-67
2023/11/15 05:30:30;;;;;;;15.35;4.10;;;11.40;99.90;;;;;;4169240;28;20051;-67
2023/11/15 05:32:30;;;;;;;22.27;5.47;;;11.30;99.90;;;;;;4173793;28;20424;-67
2023/11/15 05:34:31;;;;;;;17.45;4.30;;;11.30;99.90;;;;;;4168911;28;20030;-67
2023/11/15 05:36:32;;;;;;;11.48;3.47;;;11.30;99.90;;;;;;4164189;28;20171;-67
2023/11/15 05:38:32;;;;;;;12.85;3.65;;;11.30;99.90;;;;;;4176468;28;20040;-71
2023/11/15 05:40:33;;;;;;;13.75;3.58;;;11.30;99.90;;;;;;4175221;28;20048;-72
2023/11/15 05:42:34;;;;;;;14.00;3.90;;;11.30;99.90;;;;;;4182258;28;20033;-72
2023/11/15 05:44:35;;;;;;;11.55;3.38;;;11.30;99.90;;;;;;4171322;28;20071;-72
2023/11/15 05:46:36;;;;;;;15.05;4.03;;;11.30;99.90;;;;;;4173208;28;20037;-72
2023/11/15 05:48:36;;;;;;;11.93;3.20;;;11.30;99.90;;;;;;4174581;28;20049;-67
2023/11/15 05:50:37;;;;;;;12.30;3.78;;;11.20;99.90;;;;;;4171162;28;20049;-65
2023/11/15 05:52:38;;;;;;;7.70;2.80;;;11.30;99.90;;;;;;4169141;28;20061;-65
2023/11/15 05:54:38;;;;;;;12.70;3.20;;;11.20;99.90;;;;;;4165440;28;20049;-65
2023/11/15 05:56:48;;;;;;;14.35;3.20;;;11.20;99.90;;;;;;4158912;28;20113;-65
2023/11/15 05:58:49;;;;;;;6.10;2.63;;;11.20;99.90;;;;;;4145392;28;20046;-74
2023/11/15 06:00:50;;;;;;;14.35;3.40;;;11.20;99.90;;;;;;4153978;28;20038;-72
2023/11/15 06:02:51;;;;;;;12.88;2.97;;;11.20;99.90;;;;;;4163039;28;20099;-72
2023/11/15 06:04:54;;;;;;;10.20;3.00;;;11.20;99.90;;;;;;4181623;28;20032;-72
2023/11/15 06:06:54;;;;;;;14.85;3.75;;;11.20;99.90;;;;;;4176735;28;20072;-73
2023/11/15 06:08:55;;;;;;;8.85;2.70;;;11.20;99.90;;;;;;4161764;28;20053;-72
2023/11/15 06:10:56;;;;;;;11.93;3.10;;;11.20;99.90;;;;;;4159944;28;20045;-74
2023/11/15 06:12:56;;;;;;;12.40;3.55;;;11.20;99.90;;;;;;4159086;28;20033;-72
2023/11/15 06:14:57;;;;;;;11.35;3.00;;;11.20;99.90;;;;;;4159021;28;20053;-73
2023/11/15 06:16:57;;;;;;;11.05;3.42;;;11.20;99.90;;;;;;4151844;28;20044;-73
2023/11/15 06:18:58;;;;;;;10.43;2.97;;;11.20;99.90;;;;;;4159087;28;20554;-74
2023/11/15 06:20:58;;;;;;;15.02;3.20;;;11.20;99.90;;;;;;4176215;28;20087;-74
2023/11/15 06:23:00;;;;;;;8.15;2.90;;;11.10;99.90;;;;;;4170312;28;20038;-74
2023/11/15 06:25:00;;;;;;;10.90;3.05;;;11.20;99.90;;;;;;4185748;28;20492;-75
2023/11/15 06:27:01;;;;;;;16.25;3.97;;;11.10;99.90;;;;;;4183393;28;20114;-75
2023/11/15 06:29:03;;;;;;;11.82;3.70;;;11.10;99.90;;;;;;4176334;28;20507;-74
2023/11/15 06:31:04;;;;;;;9.60;3.72;;;11.10;99.90;;;;;;4175972;28;20132;-74
2023/11/15 06:33:05;;;;;;;8.40;3.15;;;11.10;99.90;;;;;;4178994;28;20037;-74
2023/11/15 06:35:05;;;;;;;13.75;3.33;;;11.20;99.90;;;;;;4172886;28;20025;-75
2023/11/15 06:37:06;;;;;;;14.63;4.57;;;11.10;99.90;;;;;;4172151;28;20492;-75
2023/11/15 06:39:10;;;;;;;8.80;3.13;;;11.10;99.90;;;;;;4190489;28;20082;-75
2023/11/15 06:41:10;;;;;;;9.82;3.20;;;11.10;99.90;;;;;;4176644;28;20083;-73
2023/11/15 06:43:11;;;;;;;10.77;3.40;;;11.20;99.90;;;;;;4177354;28;20481;-73
2023/11/15 06:45:12;;;;;;;15.90;4.05;;;11.20;99.90;;;;;;4174058;28;20066;-73
2023/11/15 06:47:14;;;;;;;9.35;3.30;;;11.10;99.90;;;;;;4166776;28;20049;-74
2023/11/15 06:49:15;;;;;;;13.90;3.33;;;11.10;99.90;;;;;;4171708;28;20124;-73
2023/11/15 06:51:16;;;;;;;16.15;3.55;;;11.10;99.90;;;;;;4159482;28;20075;-73
2023/11/15 06:53:17;;;;;;;16.35;3.55;;;11.10;99.90;;;;;;4166525;28;20045;-73
2023/11/15 06:55:18;;;;;;;10.68;3.10;;;11.10;99.90;;;;;;4175924;28;20090;-73
2023/11/15 06:57:19;;;;;;;10.25;3.50;;;11.10;99.90;;;;;;4176951;28;20543;-73
2023/11/15 06:59:20;;;;;;;11.60;3.28;;;11.10;99.90;;;;;;4172778;28;20123;-73
2023/11/15 07:01:21;;;;;;;11.27;3.22;;;11.10;99.90;;;;;;4172579;28;20119;-73
2023/11/15 07:03:22;;;;;;;14.30;4.10;;;11.10;99.90;;;;;;4177010;28;20472;-73
2023/11/15 07:05:23;;;;;;;10.05;3.50;;;11.10;99.90;;;;;;4190881;28;20480;-73
2023/11/15 07:07:24;;;;;;;15.90;4.05;;;11.10;99.90;;;;;;4176686;28;20090;-74
2023/11/15 07:09:27;;;;;;;14.98;4.00;;;11.10;99.90;;;;;;4173385;28;20029;-69
2023/11/15 07:11:27;;;;;;;19.98;3.60;;;11.10;99.90;;;;;;4177466;28;20119;-68
2023/11/15 07:13:31;;;;;;;17.17;4.18;;;11.10;99.90;;;;;;4176015;28;20444;-69
2023/11/15 07:15:31;;;;;;;11.30;2.72;;;11.10;99.90;;;;;;4190781;28;20443;-69
2023/11/15 07:17:32;;;;;;;14.13;3.45;;;11.20;99.90;;;;;;4174394;28;20033;-69
2023/11/15 07:19:33;;;;;;;20.73;5.45;;;11.10;99.90;;;;;;4172626;28;20432;-69
2023/11/15 07:21:33;;;;;;;15.35;4.28;;;11.10;99.90;;;;;;4171994;28;20047;-69
2023/11/15 07:23:34;;;;;;;12.90;4.03;;;11.20;99.90;;;;;;4175997;28;20036;-69
2023/11/15 07:25:34;;;;;;;13.57;4.00;;;11.10;99.90;;;;;;4174811;28;20067;-69
2023/11/15 07:27:36;;;;;;;19.15;4.40;;;11.20;99.90;;;;;;4191584;28;20029;-69
2023/11/15 07:29:37;;;;;;;20.70;4.20;;;11.20;99.90;;;;;;4175013;28;20448;-69
2023/11/15 07:31:40;;;;;;;15.60;4.15;;;11.10;99.90;;;;;;4190361;28;20060;-69
2023/11/15 07:33:41;;;;;;;10.57;4.35;;;11.10;99.90;;;;;;4174525;28;20048;-69
2023/11/15 07:35:42;;;;;;;16.80;3.88;;;11.10;99.90;;;;;;4176955;28;20387;-69
2023/11/15 07:37:43;;;;;;;13.68;4.07;;;11.10;99.90;;;;;;4177193;28;20049;-69
2023/11/15 07:39:43;;;;;;;18.60;5.20;;;11.20;99.90;;;;;;4171111;28;20037;-69
2023/11/15 07:41:44;;;;;;;15.30;4.10;;;11.20;99.90;;;;;;4175445;28;20091;-69
2023/11/15 07:43:46;;;;;;;9.80;3.70;;;11.20;99.90;;;;;;4173344;28;20044;-69
2023/11/15 07:45:51;;;;;;;12.32;4.03;;;11.20;99.90;;;;;;4160952;28;20119;-69
2023/11/15 07:47:53;;;;;;;12.85;3.60;;;11.20;99.90;;;;;;4173322;28;20029;-69
2023/11/15 07:49:54;;;;;;;12.82;3.90;;;11.20;99.90;;;;;;4191680;28;20056;-69
2023/11/15 07:51:55;;;;;;;13.10;4.07;;;11.20;99.90;;;;;;4178324;28;20036;-69
2023/11/15 07:53:55;;;;;;;14.70;4.32;;;11.20;99.90;;;;;;4179277;28;20079;-69
2023/11/15 07:55:57;;;;;;;12.57;4.15;;;11.30;99.90;;;;;;4177906;28;20116;-70
2023/11/15 07:57:58;;;;;;;25.05;5.22;;;11.20;99.90;;;;;;4179862;28;20069;-70
2023/11/15 07:59:58;;;;;;;11.10;4.40;;;11.30;99.90;;;;;;4171723;28;20075;-70
2023/11/15 08:01:59;;;;;;;14.40;4.88;;;11.30;99.90;;;;;;4170430;28;20389;-69
2023/11/15 08:04:01;;;;;;;12.55;4.40;;;11.40;99.90;;;;;;4169591;28;20036;-70
2023/11/15 08:06:05;;;;;;;26.30;5.43;;;11.40;99.90;;;;;;4173041;28;20036;-70
2023/11/15 08:08:06;;;;;;;13.03;4.63;;;11.70;99.90;;;;;;4179304;28;20044;-70
2023/11/15 08:10:07;;;;;;;16.95;4.38;;;11.80;99.90;;;;;;4164367;28;20805;-70
2023/11/15 08:12:08;;;;;;;12.65;3.95;;;12.00;99.90;;;;;;4179971;28;20120;-70
2023/11/15 08:14:09;;;;;;;10.43;4.43;;;12.10;99.90;;;;;;4178972;28;20033;-70
2023/11/15 08:16:12;;;;;;;13.52;4.13;;;12.20;99.90;;;;;;4177848;28;20048;-70
2023/11/15 08:18:13;;;;;;;;;;;12.20;99.90;;;;;;4179771;28;20037;-80
2023/11/15 08:20:14;;;;;;;18.05;5.03;;;12.10;99.90;;;;;;4174908;28;19932;-80
2023/11/15 08:22:16;;;;;;;14.25;4.30;;;12.00;99.90;;;;;;4179184;28;20025;-80
2023/11/15 08:24:24;;;;;;;12.38;4.10;;;12.00;99.90;;;;;;4179095;28;20056;-76
2023/11/15 08:26:24;;;;;;;18.90;4.70;;;11.90;99.90;;;;;;4191684;28;20512;-78
2023/11/15 08:28:25;;;;;;;17.33;4.75;;;11.90;99.90;;;;;;4179204;28;20033;-80
2023/11/15 08:30:25;;;;;;;12.13;4.53;;;11.90;99.90;;;;;;4175016;28;21717;-80
2023/11/15 08:32:29;;;;;;;13.13;4.00;;;11.90;99.90;;;;;;4178704;28;20047;-79
2023/11/15 08:34:30;;;;;;;13.65;4.90;;;12.00;99.90;;;;;;4194134;28;20074;-79
2023/11/15 08:36:31;;;;;;;14.63;4.50;;;12.00;99.90;;;;;;4177308;28;20128;-79
2023/11/15 08:38:31;;;;;;;15.35;4.65;;;12.00;99.90;;;;;;4178619;28;20076;-79
2023/11/15 08:40:33;;;;;;;11.65;4.47;;;11.90;99.90;;;;;;4179686;28;20116;-78
2023/11/15 08:42:34;;;;;;;11.23;3.83;;;11.90;99.90;;;;;;4175662;28;20044;-78
2023/11/15 08:44:37;;;;;;;14.80;3.97;;;11.90;99.90;;;;;;4177011;28;20457;-78
2023/11/15 08:46:42;;;;;;;15.52;5.53;;;11.80;99.90;;;;;;4177504;28;20095;-78
2023/11/15 08:48:44;;;;;;;14.65;4.95;;;11.80;99.90;;;;;;4178567;28;20037;-79
2023/11/15 08:50:45;;;;;;;15.50;4.72;;;11.80;99.90;;;;;;4174448;28;20040;-77
2023/11/15 08:52:46;;;;;;;10.98;4.35;;;11.80;99.90;;;;;;4178877;28;20029;-78
2023/11/15 08:54:47;;;;;;;13.18;4.40;;;11.70;99.90;;;;;;4178140;28;20075;-78
2023/11/15 08:56:49;;;;;;;10.52;3.63;;;11.70;99.90;;;;;;4177632;28;20044;-78
2023/11/15 08:58:51;;;;;;;14.25;3.83;;;11.70;99.90;;;;;;4178321;28;20194;-78
2023/11/15 09:00:53;;;;;;;12.27;3.97;;;11.80;99.90;;;;;;4174495;28;20462;-76
2023/11/15 09:02:53;;;;;;;11.07;4.28;;;11.80;99.90;;;;;;4177678;28;20103;-78
2023/11/15 09:04:54;;;;;;;16.25;3.92;;;11.80;99.90;;;;;;4177287;28;20033;-79
2023/11/15 09:06:55;;;;;;;15.43;4.45;;;11.80;99.90;;;;;;4177191;28;20481;-77
2023/11/15 09:08:56;;;;;;;11.27;4.15;;;11.80;99.90;;;;;;4177595;28;20045;-77
2023/11/15 09:10:57;;;;;;;15.80;4.70;;;11.80;99.90;;;;;;4176331;28;20048;-77
2023/11/15 09:12:58;;;;;;;11.07;4.13;;;11.80;99.90;;;;;;4178276;28;20037;-77
2023/11/15 09:14:59;;;;;;;11.50;3.70;;;11.80;99.90;;;;;;4178274;28;20041;-77
2023/11/15 09:17:01;;;;;;;13.48;3.95;;;11.80;99.90;;;;;;4176637;28;20072;-77
2023/11/15 09:19:04;;;;;;;13.95;4.10;;;11.80;99.90;;;;;;4176467;28;20048;-77
2023/11/15 09:21:05;;;;;;;16.10;3.67;;;11.80;99.90;;;;;;4176678;28;20428;-77
2023/11/15 09:23:06;;;;;;;13.45;4.47;;;11.70;99.90;;;;;;4178321;28;20029;-76
2023/11/15 09:25:11;;;;;;;13.35;3.67;;;11.80;99.90;;;;;;4177464;28;20385;-78
2023/11/15 09:27:12;;;;;;;11.32;3.10;;;11.80;99.90;;;;;;4175780;28;20504;-77
2023/11/15 09:29:13;;;;;;;14.98;4.00;;;11.80;99.90;;;;;;4176488;28;20065;-70
2023/11/15 09:31:14;;;;;;;15.13;4.05;;;11.80;99.90;;;;;;4175657;28;20037;-70
2023/11/15 09:33:16;;;;;;;14.15;3.65;;;11.80;99.90;;;;;;4177070;28;20509;-71
2023/11/15 09:35:21;;;;;;;13.30;3.45;;;11.80;99.90;;;;;;4179044;28;20396;-71
2023/11/15 09:37:21;;;;;;;11.07;3.30;;;11.80;99.90;;;;;;4175538;28;20516;-70
2023/11/15 09:39:23;;;;;;;12.55;3.10;;;11.80;99.90;;;;;;4172916;28;20081;-71
2023/11/15 09:41:24;;;;;;;17.20;3.63;;;11.70;99.90;;;;;;4173937;28;20472;-71
2023/11/15 09:43:25;;;;;;;10.88;3.75;;;11.80;99.90;;;;;;4193482;28;20091;-71
2023/11/15 09:45:26;;;;;;;13.32;4.00;;;11.80;99.90;;;;;;4177288;28;20546;-70
2023/11/15 09:47:27;;;;;;;15.48;4.00;;;11.80;99.90;;;;;;4177352;28;20029;-71
2023/11/15 09:49:28;;;;;;;9.52;3.03;;;11.80;99.90;;;;;;4173639;28;20047;-70
2023/11/15 09:51:34;;;;;;;14.73;3.63;;;11.80;99.90;;;;;;4177114;28;20044;-70
2023/11/15 09:53:35;;;;;;;13.07;4.03;;;11.80;99.90;;;;;;4192277;28;20048;-70
2023/11/15 09:55:36;;;;;;;14.38;3.38;;;11.80;99.90;;;;;;4176312;28;20037;-71
2023/11/15 09:57:36;;;;;;;14.65;3.83;;;11.80;99.90;;;;;;4177597;28;20068;-70
2023/11/15 09:59:40;;;;;;;10.82;2.80;;;11.90;99.90;;;;;;4174090;28;20128;-71
2023/11/15 10:01:49;;;;;;;12.50;3.40;;;11.90;99.90;;;;;;4175927;28;20068;-71
2023/11/15 10:03:50;;;;;;;11.18;3.22;;;11.90;99.90;;;;;;4175465;28;20488;-70
2023/11/15 10:06:00;;;;;;;7.97;3.03;;;12.00;99.90;;;;;;4175421;28;20029;-71
2023/11/15 10:08:17;;;;;;;11.07;3.30;;;11.90;99.90;;;;;;4177162;28;20068;-71
2023/11/15 10:10:24;;;;;;;13.65;3.28;;;12.00;99.90;;;;;;4188787;28;20083;-70
2023/11/15 10:12:31;;;;;;;9.50;3.03;;;12.00;99.90;;;;;;4173699;28;20037;-71
2023/11/15 10:14:34;;;;;;;12.85;3.88;;;12.10;99.90;;;;;;4196841;28;20042;-71
2023/11/15 10:16:36;;;;;;;11.65;3.53;;;12.10;99.90;;;;;;4175726;28;20033;-71
2023/11/15 10:18:38;;;;;;;11.02;3.45;;;12.10;99.90;;;;;;4176838;28;20127;-71
2023/11/15 10:20:41;;;;;;;9.02;3.15;;;12.10;99.90;;;;;;4171790;28;20544;-71
2023/11/15 10:22:45;;;;;;;15.70;3.72;;;12.10;99.90;;;;;;4177376;28;20126;-71
2023/11/15 10:25:05;;;;;;;12.98;3.83;;;12.10;99.90;;;;;;4161308;28;20473;-70
2023/11/15 10:27:10;;;;;;;14.55;3.67;;;12.10;99.90;;;;;;4160117;28;20037;-70